createdAt,value
2018-11-23T17:06:52.102Z,79.07
2018-11-23T17:09:21.628Z,78.71
2018-11-23T17:11:54.492Z,79.22
2018-11-23T17:14:24.015Z,79.18
2018-11-23T17:16:55.912Z,79.03
2018-11-23T17:19:25.477Z,79.35
2018-11-23T17:21:54.974Z,79.44
2018-11-23T17:24:24.577Z,79.06
2018-11-23T17:26:54.341Z,79.22
2018-11-23T17:29:23.904Z,78.99
2018-11-23T17:31:53.487Z,79.56
2018-11-23T17:34:23.163Z,79.13
2018-11-23T17:36:52.731Z,78.88
2018-11-23T17:39:22.340Z,79.19
2018-11-23T17:41:52.114Z,79.12
2018-11-23T17:44:21.959Z,79.42
2018-11-23T17:46:51.453Z,79.29
2018-11-23T17:49:21.275Z,79.52
2018-11-23T17:51:50.884Z,79.28
2018-11-23T17:54:20.510Z,79.25
2018-11-23T17:56:50.090Z,78.91
2018-11-23T17:59:19.690Z,79.88
2018-11-23T18:01:49.212Z,79.30
2018-11-23T18:04:19.004Z,78.97
2018-11-23T18:06:48.525Z,79.06
2018-11-23T18:09:18.135Z,79.07
2018-11-23T18:11:47.734Z,78.87
2018-11-23T18:14:17.343Z,79.36
2018-11-23T18:16:46.845Z,79.22
2018-11-23T18:19:16.771Z,79.49
2018-11-23T18:21:46.349Z,78.91
2018-11-23T18:24:15.957Z,78.99
2018-11-23T18:26:45.687Z,79.41
2018-11-23T18:29:15.099Z,79.45
2018-11-23T18:31:44.444Z,79.24
2018-11-23T18:34:13.822Z,79.22
2018-11-23T18:36:43.173Z,79.00
2018-11-23T18:39:12.493Z,79.54
2018-11-23T18:41:41.793Z,79.24
2018-11-23T18:44:11.254Z,79.39
2018-11-23T18:46:40.610Z,79.60
2018-11-23T18:49:09.953Z,79.51
2018-11-23T18:51:39.355Z,79.08
2018-11-23T18:54:08.727Z,79.59
2018-11-23T18:56:38.188Z,79.19
2018-11-23T18:59:07.530Z,79.21
2018-11-23T19:01:36.894Z,79.42
2018-11-23T19:04:06.437Z,79.48
2018-11-23T19:06:35.823Z,79.43
2018-11-23T19:09:09.805Z,79.63
2018-11-23T19:11:39.190Z,79.51
2018-11-23T19:14:08.547Z,79.42
2018-11-23T19:16:37.987Z,79.55
2018-11-23T19:19:07.637Z,79.47
2018-11-23T19:21:36.995Z,79.58
2018-11-23T19:24:06.939Z,79.85
2018-11-23T19:26:36.315Z,79.80
2018-11-23T19:29:06.259Z,79.90
2018-11-23T19:31:35.631Z,79.41
2018-11-23T19:34:06.324Z,79.63
2018-11-23T19:36:35.690Z,79.85
2018-11-23T19:39:08.472Z,79.61
2018-11-23T19:41:37.787Z,79.44
2018-11-23T19:44:07.147Z,79.82
2018-11-23T19:46:36.556Z,80.23
2018-11-23T19:49:06.476Z,80.11
2018-11-23T19:54:16.056Z,79.96
2018-11-23T19:56:45.424Z,80.20
2018-11-23T19:59:18.404Z,80.00
2018-11-23T20:01:47.755Z,80.42
2018-11-23T20:04:17.086Z,80.25
2018-11-23T20:06:46.440Z,80.35
2018-11-23T20:09:15.817Z,79.85
2018-11-23T20:11:45.348Z,80.53
2018-11-23T20:14:14.947Z,80.13
2018-11-23T20:16:44.363Z,80.42
2018-11-23T20:19:13.879Z,79.96
2018-11-23T20:21:43.315Z,80.30
2018-11-23T20:24:12.775Z,79.91
2018-11-23T20:26:42.190Z,80.10
2018-11-23T20:29:11.546Z,80.22
2018-11-23T20:31:41.130Z,80.30
2018-11-23T20:34:12.197Z,79.85
2018-11-23T20:36:41.692Z,79.91
2018-11-23T20:39:11.311Z,80.09
2018-11-23T20:41:40.685Z,79.79
2018-11-23T20:44:10.092Z,79.88
2018-11-23T20:46:39.518Z,80.09
2018-11-23T20:49:08.929Z,80.40
2018-11-23T20:51:43.327Z,79.94
2018-11-23T20:54:12.736Z,79.63
2018-11-23T20:56:42.107Z,80.33
2018-11-23T20:59:11.516Z,80.19
2018-11-23T21:01:40.968Z,80.45
2018-11-23T21:04:10.444Z,80.03
2018-11-23T21:06:40.147Z,80.06
2018-11-23T21:09:13.993Z,80.68
2018-11-23T21:11:43.354Z,80.55
2018-11-23T21:14:12.989Z,80.25
2018-11-23T21:16:42.460Z,80.43
2018-11-23T21:19:11.822Z,80.72
2018-11-23T21:21:41.165Z,80.54
2018-11-23T21:24:10.531Z,80.43
2018-11-23T21:26:45.363Z,80.42
2018-11-23T21:29:14.754Z,80.47
2018-11-23T21:31:44.264Z,80.50
2018-11-23T21:34:17.087Z,80.78
2018-11-23T21:36:48.335Z,80.73
2018-11-23T21:39:17.700Z,80.27
2018-11-23T21:41:47.172Z,80.59
2018-11-23T21:44:16.562Z,80.36
2018-11-23T21:46:46.020Z,80.38
2018-11-23T21:49:15.438Z,80.38
2018-11-23T21:51:44.811Z,80.89
2018-11-23T21:54:14.237Z,80.71
2018-11-23T21:56:43.620Z,80.65
2018-11-23T21:59:12.986Z,81.03
2018-11-23T22:01:44.013Z,81.08
2018-11-23T22:04:13.344Z,80.81
2018-11-23T22:06:42.683Z,80.51
2018-11-23T22:09:12.005Z,80.61
2018-11-23T22:11:41.356Z,80.45
2018-11-23T22:14:10.695Z,80.33
2018-11-23T22:16:40.082Z,80.67
2018-11-23T22:19:09.452Z,80.77
2018-11-23T22:21:38.835Z,81.02
2018-11-23T22:24:08.188Z,80.66
2018-11-23T22:26:37.506Z,81.00
2018-11-23T22:29:06.847Z,80.89
2018-11-23T22:31:36.195Z,80.38
2018-11-23T22:34:06.811Z,80.49
2018-11-23T22:36:36.167Z,80.83
2018-11-23T22:39:09.111Z,80.82
2018-11-23T22:41:38.558Z,80.51
2018-11-23T22:44:07.866Z,80.99
2018-11-23T22:46:37.272Z,80.80
2018-11-23T22:49:06.920Z,80.65
2018-11-23T22:51:36.280Z,80.92
2018-11-23T22:54:07.906Z,80.73
2018-11-23T22:56:37.412Z,80.56
2018-11-23T22:59:06.877Z,80.78
2018-11-23T23:01:36.246Z,80.91
2018-11-23T23:04:06.330Z,80.55
2018-11-23T23:06:37.289Z,81.12
2018-11-23T23:09:10.162Z,80.54
2018-11-23T23:11:39.491Z,80.88
2018-11-23T23:14:09.719Z,81.18
2018-11-23T23:16:39.057Z,80.31
2018-11-23T23:19:08.107Z,80.72
2018-11-23T23:21:37.447Z,80.76
2018-11-23T23:24:11.608Z,80.95
2018-11-23T23:26:36.288Z,81.23
2018-11-23T23:29:06.227Z,80.61
2018-11-23T23:31:35.655Z,80.51
2018-11-23T23:34:05.103Z,80.37
2018-11-23T23:36:34.427Z,80.52
2018-11-23T23:39:03.829Z,81.02
2018-11-23T23:41:33.257Z,80.92
2018-11-23T23:44:02.596Z,80.91
2018-11-23T23:46:32.016Z,80.55
2018-11-23T23:49:01.344Z,80.65
2018-11-23T23:51:30.744Z,80.60
2018-11-23T23:54:00.059Z,81.11
2018-11-23T23:56:29.423Z,80.75
2018-11-23T23:58:58.727Z,81.00
